sensor_id;sensor_type;location;lat;lon;timestamp;P1;durP1;ratioP1;P2;durP2;ratioP2
74908;SDS011;63468;52.058;4.824;2023-01-29T00:02:11;37.40;;;19.23;;
74908;SDS011;63468;52.058;4.824;2023-01-29T00:04:37;35.53;;;17.25;;
74908;SDS011;63468;52.058;4.824;2023-01-29T00:07:02;36.40;;;19.45;;
74908;SDS011;63468;52.058;4.824;2023-01-29T00:09:27;35.85;;;18.63;;
74908;SDS011;63468;52.058;4.824;2023-01-29T00:11:53;36.08;;;17.95;;
74908;SDS011;63468;52.058;4.824;2023-01-29T00:14:18;34.63;;;18.33;;
74908;SDS011;63468;52.058;4.824;2023-01-29T00:16:43;35.42;;;17.95;;
74908;SDS011;63468;52.058;4.824;2023-01-29T00:19:09;35.58;;;19.05;;
74908;SDS011;63468;52.058;4.824;2023-01-29T00:21:34;42.47;;;19.85;;
74908;SDS011;63468;52.058;4.824;2023-01-29T00:23:59;42.33;;;18.92;;
74908;SDS011;63468;52.058;4.824;2023-01-29T00:26:25;38.70;;;18.88;;
74908;SDS011;63468;52.058;4.824;2023-01-29T00:28:51;41.70;;;19.75;;
74908;SDS011;63468;52.058;4.824;2023-01-29T00:31:17;37.42;;;19.40;;
74908;SDS011;63468;52.058;4.824;2023-01-29T00:33:44;35.95;;;19.65;;
74908;SDS011;63468;52.058;4.824;2023-01-29T00:36:11;32.13;;;16.70;;
74908;SDS011;63468;52.058;4.824;2023-01-29T00:38:38;34.78;;;18.17;;
74908;SDS011;63468;52.058;4.824;2023-01-29T00:41:04;36.63;;;18.67;;
74908;SDS011;63468;52.058;4.824;2023-01-29T00:43:51;35.05;;;17.65;;
74908;SDS011;63468;52.058;4.824;2023-01-29T00:46:36;34.92;;;16.90;;
74908;SDS011;63468;52.058;4.824;2023-01-29T00:49:01;37.08;;;18.75;;
74908;SDS011;63468;52.058;4.824;2023-01-29T00:51:27;40.53;;;20.55;;
74908;SDS011;63468;52.058;4.824;2023-01-29T00:53:52;36.30;;;17.80;;
74908;SDS011;63468;52.058;4.824;2023-01-29T00:56:22;39.38;;;17.70;;
74908;SDS011;63468;52.058;4.824;2023-01-29T00:58:51;38.35;;;18.83;;
74908;SDS011;63468;52.058;4.824;2023-01-29T01:01:17;36.15;;;18.33;;
74908;SDS011;63468;52.058;4.824;2023-01-29T01:04:03;42.03;;;18.30;;
74908;SDS011;63468;52.058;4.824;2023-01-29T01:06:28;36.80;;;18.48;;
74908;SDS011;63468;52.058;4.824;2023-01-29T01:08:53;33.42;;;17.90;;
74908;SDS011;63468;52.058;4.824;2023-01-29T01:11:37;36.97;;;18.10;;
74908;SDS011;63468;52.058;4.824;2023-01-29T01:14:03;39.28;;;20.17;;
74908;SDS011;63468;52.058;4.824;2023-01-29T01:16:28;37.78;;;18.83;;
74908;SDS011;63468;52.058;4.824;2023-01-29T01:18:53;36.13;;;18.45;;
74908;SDS011;63468;52.058;4.824;2023-01-29T01:21:19;39.20;;;19.20;;
74908;SDS011;63468;52.058;4.824;2023-01-29T01:23:44;43.58;;;18.92;;
74908;SDS011;63468;52.058;4.824;2023-01-29T01:26:09;38.47;;;18.00;;
74908;SDS011;63468;52.058;4.824;2023-01-29T01:28:35;36.42;;;19.90;;
74908;SDS011;63468;52.058;4.824;2023-01-29T01:31:06;41.08;;;20.20;;
74908;SDS011;63468;52.058;4.824;2023-01-29T01:33:35;41.50;;;20.48;;
74908;SDS011;63468;52.058;4.824;2023-01-29T01:36:01;38.10;;;20.33;;
74908;SDS011;63468;52.058;4.824;2023-01-29T01:38:27;42.67;;;21.02;;
74908;SDS011;63468;52.058;4.824;2023-01-29T01:40:52;37.83;;;18.90;;
74908;SDS011;63468;52.058;4.824;2023-01-29T01:43:18;35.53;;;19.33;;
74908;SDS011;63468;52.058;4.824;2023-01-29T01:45:43;42.08;;;20.23;;
74908;SDS011;63468;52.058;4.824;2023-01-29T01:50:51;39.90;;;20.23;;
74908;SDS011;63468;52.058;4.824;2023-01-29T01:53:20;44.58;;;20.73;;
74908;SDS011;63468;52.058;4.824;2023-01-29T01:55:51;45.55;;;21.23;;
74908;SDS011;63468;52.058;4.824;2023-01-29T01:58:27;41.67;;;19.70;;
74908;SDS011;63468;52.058;4.824;2023-01-29T02:01:05;36.63;;;19.48;;
74908;SDS011;63468;52.058;4.824;2023-01-29T02:03:32;43.80;;;20.25;;
74908;SDS011;63468;52.058;4.824;2023-01-29T02:06:18;40.92;;;21.65;;
74908;SDS011;63468;52.058;4.824;2023-01-29T02:09:04;37.28;;;19.75;;
74908;SDS011;63468;52.058;4.824;2023-01-29T02:11:57;42.20;;;22.05;;
74908;SDS011;63468;52.058;4.824;2023-01-29T02:14:23;36.70;;;18.35;;
74908;SDS011;63468;52.058;4.824;2023-01-29T02:16:49;43.55;;;20.35;;
74908;SDS011;63468;52.058;4.824;2023-01-29T02:19:38;41.17;;;20.00;;
74908;SDS011;63468;52.058;4.824;2023-01-29T02:27:55;43.40;;;21.38;;
74908;SDS011;63468;52.058;4.824;2023-01-29T02:30:19;42.25;;;21.48;;
74908;SDS011;63468;52.058;4.824;2023-01-29T02:32:58;40.72;;;21.88;;
74908;SDS011;63468;52.058;4.824;2023-01-29T02:35:37;44.03;;;21.65;;
74908;SDS011;63468;52.058;4.824;2023-01-29T02:38:09;40.80;;;20.37;;
74908;SDS011;63468;52.058;4.824;2023-01-29T02:40:39;44.53;;;21.38;;
74908;SDS011;63468;52.058;4.824;2023-01-29T02:43:14;44.38;;;21.65;;
74908;SDS011;63468;52.058;4.824;2023-01-29T02:48:28;44.30;;;22.83;;
74908;SDS011;63468;52.058;4.824;2023-01-29T02:51:23;42.65;;;21.77;;
74908;SDS011;63468;52.058;4.824;2023-01-29T02:53:55;46.28;;;21.02;;
74908;SDS011;63468;52.058;4.824;2023-01-29T02:56:26;46.13;;;22.48;;
74908;SDS011;63468;52.058;4.824;2023-01-29T02:58:59;40.25;;;20.95;;
74908;SDS011;63468;52.058;4.824;2023-01-29T03:01:37;44.58;;;21.77;;
74908;SDS011;63468;52.058;4.824;2023-01-29T03:04:08;42.25;;;20.50;;
74908;SDS011;63468;52.058;4.824;2023-01-29T03:06:46;54.38;;;23.45;;
74908;SDS011;63468;52.058;4.824;2023-01-29T03:09:41;41.97;;;22.40;;
74908;SDS011;63468;52.058;4.824;2023-01-29T03:12:13;44.97;;;23.05;;
74908;SDS011;63468;52.058;4.824;2023-01-29T03:14:52;44.28;;;23.13;;
74908;SDS011;63468;52.058;4.824;2023-01-29T03:20:12;44.53;;;23.48;;
74908;SDS011;63468;52.058;4.824;2023-01-29T03:22:43;47.70;;;23.80;;
74908;SDS011;63468;52.058;4.824;2023-01-29T03:25:10;41.00;;;22.70;;
74908;SDS011;63468;52.058;4.824;2023-01-29T03:27:57;43.15;;;21.90;;
74908;SDS011;63468;52.058;4.824;2023-01-29T03:30:44;44.25;;;22.90;;
74908;SDS011;63468;52.058;4.824;2023-01-29T03:33:31;44.33;;;22.48;;
74908;SDS011;63468;52.058;4.824;2023-01-29T03:36:08;44.28;;;22.45;;
74908;SDS011;63468;52.058;4.824;2023-01-29T03:38:35;44.38;;;21.45;;
74908;SDS011;63468;52.058;4.824;2023-01-29T03:41:03;46.17;;;22.85;;
74908;SDS011;63468;52.058;4.824;2023-01-29T03:46:20;45.17;;;22.35;;
74908;SDS011;63468;52.058;4.824;2023-01-29T03:49:14;43.63;;;21.80;;
74908;SDS011;63468;52.058;4.824;2023-01-29T03:51:57;41.10;;;22.10;;
74908;SDS011;63468;52.058;4.824;2023-01-29T03:54:37;49.17;;;23.52;;
74908;SDS011;63468;52.058;4.824;2023-01-29T04:00:05;46.70;;;22.27;;
74908;SDS011;63468;52.058;4.824;2023-01-29T04:02:46;48.63;;;23.52;;
74908;SDS011;63468;52.058;4.824;2023-01-29T04:05:23;45.05;;;22.52;;
74908;SDS011;63468;52.058;4.824;2023-01-29T04:07:51;48.05;;;21.85;;
74908;SDS011;63468;52.058;4.824;2023-01-29T04:10:20;52.58;;;24.13;;
74908;SDS011;63468;52.058;4.824;2023-01-29T04:12:50;52.47;;;22.77;;
74908;SDS011;63468;52.058;4.824;2023-01-29T04:15:19;51.92;;;23.85;;
74908;SDS011;63468;52.058;4.824;2023-01-29T04:17:48;47.33;;;21.70;;
74908;SDS011;63468;52.058;4.824;2023-01-29T04:20:15;51.05;;;23.20;;
74908;SDS011;63468;52.058;4.824;2023-01-29T04:22:46;52.78;;;23.13;;
74908;SDS011;63468;52.058;4.824;2023-01-29T04:25:14;48.90;;;22.73;;
74908;SDS011;63468;52.058;4.824;2023-01-29T04:33:12;45.58;;;22.20;;
74908;SDS011;63468;52.058;4.824;2023-01-29T04:35:43;53.22;;;23.70;;
74908;SDS011;63468;52.058;4.824;2023-01-29T04:41:22;45.03;;;22.40;;
74908;SDS011;63468;52.058;4.824;2023-01-29T04:44:09;45.13;;;22.77;;
74908;SDS011;63468;52.058;4.824;2023-01-29T04:49:16;49.28;;;21.42;;
74908;SDS011;63468;52.058;4.824;2023-01-29T04:52:08;48.75;;;24.17;;
74908;SDS011;63468;52.058;4.824;2023-01-29T04:54:55;41.70;;;22.23;;
74908;SDS011;63468;52.058;4.824;2023-01-29T04:57:32;48.65;;;23.75;;
74908;SDS011;63468;52.058;4.824;2023-01-29T05:00:15;44.83;;;22.38;;
74908;SDS011;63468;52.058;4.824;2023-01-29T05:02:43;50.53;;;22.13;;
74908;SDS011;63468;52.058;4.824;2023-01-29T05:05:09;46.50;;;24.38;;
74908;SDS011;63468;52.058;4.824;2023-01-29T05:07:35;50.90;;;25.10;;
74908;SDS011;63468;52.058;4.824;2023-01-29T05:10:02;54.08;;;24.63;;
74908;SDS011;63468;52.058;4.824;2023-01-29T05:12:30;53.65;;;25.85;;
74908;SDS011;63468;52.058;4.824;2023-01-29T05:14:55;53.53;;;24.70;;
74908;SDS011;63468;52.058;4.824;2023-01-29T05:17:22;51.92;;;23.92;;
74908;SDS011;63468;52.058;4.824;2023-01-29T05:19:48;54.13;;;24.98;;
74908;SDS011;63468;52.058;4.824;2023-01-29T05:22:14;51.65;;;24.65;;
74908;SDS011;63468;52.058;4.824;2023-01-29T05:24:41;48.15;;;24.17;;
74908;SDS011;63468;52.058;4.824;2023-01-29T05:27:07;53.60;;;26.33;;
74908;SDS011;63468;52.058;4.824;2023-01-29T05:29:57;46.80;;;23.45;;
74908;SDS011;63468;52.058;4.824;2023-01-29T05:32:22;51.55;;;24.15;;
74908;SDS011;63468;52.058;4.824;2023-01-29T05:34:48;51.72;;;26.52;;
74908;SDS011;63468;52.058;4.824;2023-01-29T05:37:13;51.83;;;25.35;;
74908;SDS011;63468;52.058;4.824;2023-01-29T05:39:39;58.28;;;27.27;;
74908;SDS011;63468;52.058;4.824;2023-01-29T05:42:04;55.80;;;25.10;;
74908;SDS011;63468;52.058;4.824;2023-01-29T05:44:29;48.08;;;22.58;;
74908;SDS011;63468;52.058;4.824;2023-01-29T05:46:55;50.85;;;26.15;;
74908;SDS011;63468;52.058;4.824;2023-01-29T05:49:20;52.00;;;25.95;;
74908;SDS011;63468;52.058;4.824;2023-01-29T05:51:46;52.30;;;25.05;;
74908;SDS011;63468;52.058;4.824;2023-01-29T05:54:11;49.08;;;24.10;;
74908;SDS011;63468;52.058;4.824;2023-01-29T05:56:37;52.10;;;24.90;;
74908;SDS011;63468;52.058;4.824;2023-01-29T05:59:03;50.72;;;26.27;;
74908;SDS011;63468;52.058;4.824;2023-01-29T06:01:29;54.78;;;24.83;;
74908;SDS011;63468;52.058;4.824;2023-01-29T06:03:54;57.97;;;28.50;;
74908;SDS011;63468;52.058;4.824;2023-01-29T06:06:19;52.90;;;26.20;;
74908;SDS011;63468;52.058;4.824;2023-01-29T06:08:45;47.63;;;23.75;;
74908;SDS011;63468;52.058;4.824;2023-01-29T06:11:11;50.28;;;24.88;;
74908;SDS011;63468;52.058;4.824;2023-01-29T06:13:37;51.38;;;24.63;;
74908;SDS011;63468;52.058;4.824;2023-01-29T06:16:05;50.35;;;21.73;;
74908;SDS011;63468;52.058;4.824;2023-01-29T06:18:31;44.85;;;22.65;;
74908;SDS011;63468;52.058;4.824;2023-01-29T06:21:00;42.50;;;21.65;;
74908;SDS011;63468;52.058;4.824;2023-01-29T06:23:26;45.67;;;21.60;;
74908;SDS011;63468;52.058;4.824;2023-01-29T06:25:51;41.08;;;20.42;;
74908;SDS011;63468;52.058;4.824;2023-01-29T06:28:17;50.95;;;23.13;;
74908;SDS011;63468;52.058;4.824;2023-01-29T06:30:42;48.95;;;22.42;;
74908;SDS011;63468;52.058;4.824;2023-01-29T06:33:07;46.78;;;20.92;;
74908;SDS011;63468;52.058;4.824;2023-01-29T06:35:33;45.67;;;21.83;;
74908;SDS011;63468;52.058;4.824;2023-01-29T06:37:58;48.55;;;22.90;;
74908;SDS011;63468;52.058;4.824;2023-01-29T06:40:23;44.13;;;21.65;;
74908;SDS011;63468;52.058;4.824;2023-01-29T06:42:49;44.63;;;21.88;;
74908;SDS011;63468;52.058;4.824;2023-01-29T06:45:14;45.85;;;23.27;;
74908;SDS011;63468;52.058;4.824;2023-01-29T06:47:39;45.25;;;22.40;;
74908;SDS011;63468;52.058;4.824;2023-01-29T06:50:05;49.80;;;23.02;;
74908;SDS011;63468;52.058;4.824;2023-01-29T06:52:30;49.20;;;25.77;;
74908;SDS011;63468;52.058;4.824;2023-01-29T06:54:55;48.42;;;22.73;;
74908;SDS011;63468;52.058;4.824;2023-01-29T06:57:21;43.50;;;22.02;;
74908;SDS011;63468;52.058;4.824;2023-01-29T06:59:47;47.70;;;23.27;;
74908;SDS011;63468;52.058;4.824;2023-01-29T07:02:12;47.60;;;22.35;;
74908;SDS011;63468;52.058;4.824;2023-01-29T07:04:37;47.42;;;23.10;;
74908;SDS011;63468;52.058;4.824;2023-01-29T07:07:03;42.17;;;20.90;;
74908;SDS011;63468;52.058;4.824;2023-01-29T07:09:29;37.03;;;20.88;;
74908;SDS011;63468;52.058;4.824;2023-01-29T07:11:54;39.42;;;21.15;;
74908;SDS011;63468;52.058;4.824;2023-01-29T07:14:19;45.83;;;19.98;;
74908;SDS011;63468;52.058;4.824;2023-01-29T07:16:45;44.30;;;22.48;;
74908;SDS011;63468;52.058;4.824;2023-01-29T07:19:10;47.58;;;22.92;;
74908;SDS011;63468;52.058;4.824;2023-01-29T07:21:36;41.22;;;22.17;;
74908;SDS011;63468;52.058;4.824;2023-01-29T07:24:01;46.22;;;23.90;;
74908;SDS011;63468;52.058;4.824;2023-01-29T07:26:27;42.60;;;23.02;;
74908;SDS011;63468;52.058;4.824;2023-01-29T07:28:52;46.88;;;23.02;;
74908;SDS011;63468;52.058;4.824;2023-01-29T07:31:17;46.78;;;21.80;;
74908;SDS011;63468;52.058;4.824;2023-01-29T07:33:43;46.28;;;23.63;;
74908;SDS011;63468;52.058;4.824;2023-01-29T07:36:09;47.55;;;22.38;;
74908;SDS011;63468;52.058;4.824;2023-01-29T07:38:34;43.30;;;23.25;;
74908;SDS011;63468;52.058;4.824;2023-01-29T07:41:00;39.13;;;21.02;;
74908;SDS011;63468;52.058;4.824;2023-01-29T07:43:25;44.13;;;21.63;;
74908;SDS011;63468;52.058;4.824;2023-01-29T07:45:50;41.75;;;22.13;;
74908;SDS011;63468;52.058;4.824;2023-01-29T07:48:16;49.05;;;22.98;;
74908;SDS011;63468;52.058;4.824;2023-01-29T07:50:41;44.53;;;22.02;;
74908;SDS011;63468;52.058;4.824;2023-01-29T07:53:10;42.85;;;23.42;;
74908;SDS011;63468;52.058;4.824;2023-01-29T07:55:37;43.38;;;22.88;;
74908;SDS011;63468;52.058;4.824;2023-01-29T07:58:02;46.17;;;22.40;;
74908;SDS011;63468;52.058;4.824;2023-01-29T08:00:28;44.95;;;21.63;;
74908;SDS011;63468;52.058;4.824;2023-01-29T08:03:05;45.60;;;22.15;;
74908;SDS011;63468;52.058;4.824;2023-01-29T08:05:31;45.72;;;22.75;;
74908;SDS011;63468;52.058;4.824;2023-01-29T08:07:57;47.95;;;24.38;;
74908;SDS011;63468;52.058;4.824;2023-01-29T08:10:22;47.17;;;22.58;;
74908;SDS011;63468;52.058;4.824;2023-01-29T08:12:52;46.97;;;21.63;;
74908;SDS011;63468;52.058;4.824;2023-01-29T08:15:24;41.53;;;21.67;;
74908;SDS011;63468;52.058;4.824;2023-01-29T08:17:50;36.13;;;20.63;;
74908;SDS011;63468;52.058;4.824;2023-01-29T08:20:16;46.72;;;22.90;;
74908;SDS011;63468;52.058;4.824;2023-01-29T08:22:42;42.42;;;23.55;;
74908;SDS011;63468;52.058;4.824;2023-01-29T08:25:07;36.17;;;19.75;;
74908;SDS011;63468;52.058;4.824;2023-01-29T08:27:33;44.55;;;22.40;;
74908;SDS011;63468;52.058;4.824;2023-01-29T08:29:58;40.53;;;23.00;;
74908;SDS011;63468;52.058;4.824;2023-01-29T08:32:23;38.35;;;21.60;;
74908;SDS011;63468;52.058;4.824;2023-01-29T08:34:48;40.30;;;22.88;;
74908;SDS011;63468;52.058;4.824;2023-01-29T08:37:14;45.50;;;22.35;;
74908;SDS011;63468;52.058;4.824;2023-01-29T08:39:39;42.28;;;22.70;;
74908;SDS011;63468;52.058;4.824;2023-01-29T08:42:04;39.20;;;21.02;;
74908;SDS011;63468;52.058;4.824;2023-01-29T08:44:30;41.28;;;21.17;;
74908;SDS011;63468;52.058;4.824;2023-01-29T08:46:55;41.28;;;19.67;;
74908;SDS011;63468;52.058;4.824;2023-01-29T08:49:20;42.08;;;22.42;;
74908;SDS011;63468;52.058;4.824;2023-01-29T08:51:46;44.63;;;22.73;;
74908;SDS011;63468;52.058;4.824;2023-01-29T08:54:11;41.33;;;22.48;;
74908;SDS011;63468;52.058;4.824;2023-01-29T08:56:36;42.47;;;23.13;;
74908;SDS011;63468;52.058;4.824;2023-01-29T08:59:02;38.45;;;20.73;;
74908;SDS011;63468;52.058;4.824;2023-01-29T09:01:27;44.40;;;21.88;;
74908;SDS011;63468;52.058;4.824;2023-01-29T09:03:52;38.63;;;21.17;;
74908;SDS011;63468;52.058;4.824;2023-01-29T09:06:18;38.80;;;20.80;;
74908;SDS011;63468;52.058;4.824;2023-01-29T09:08:43;37.28;;;21.88;;
74908;SDS011;63468;52.058;4.824;2023-01-29T09:11:08;43.67;;;21.92;;
74908;SDS011;63468;52.058;4.824;2023-01-29T09:13:34;37.22;;;21.80;;
74908;SDS011;63468;52.058;4.824;2023-01-29T09:16:00;40.90;;;20.92;;
74908;SDS011;63468;52.058;4.824;2023-01-29T09:18:26;37.08;;;21.35;;
74908;SDS011;63468;52.058;4.824;2023-01-29T09:20:52;40.85;;;22.73;;
74908;SDS011;63468;52.058;4.824;2023-01-29T09:23:17;39.90;;;21.65;;
74908;SDS011;63468;52.058;4.824;2023-01-29T09:25:43;39.05;;;22.17;;
74908;SDS011;63468;52.058;4.824;2023-01-29T09:28:08;38.72;;;20.90;;
74908;SDS011;63468;52.058;4.824;2023-01-29T09:30:33;41.97;;;21.75;;
74908;SDS011;63468;52.058;4.824;2023-01-29T09:33:01;36.75;;;20.50;;
74908;SDS011;63468;52.058;4.824;2023-01-29T09:35:27;36.22;;;21.63;;
74908;SDS011;63468;52.058;4.824;2023-01-29T09:37:52;44.22;;;22.40;;
74908;SDS011;63468;52.058;4.824;2023-01-29T09:43:53;41.38;;;23.45;;
74908;SDS011;63468;52.058;4.824;2023-01-29T09:45:59;45.10;;;21.55;;
74908;SDS011;63468;52.058;4.824;2023-01-29T09:48:26;41.65;;;22.20;;
74908;SDS011;63468;52.058;4.824;2023-01-29T09:50:53;37.03;;;20.67;;
74908;SDS011;63468;52.058;4.824;2023-01-29T09:58:22;40.67;;;22.80;;
74908;SDS011;63468;52.058;4.824;2023-01-29T10:09:58;46.78;;;22.08;;
74908;SDS011;63468;52.058;4.824;2023-01-29T10:24:06;41.53;;;21.70;;
74908;SDS011;63468;52.058;4.824;2023-01-29T10:26:27;43.10;;;22.50;;
74908;SDS011;63468;52.058;4.824;2023-01-29T10:28:53;43.38;;;23.13;;
74908;SDS011;63468;52.058;4.824;2023-01-29T10:36:48;50.60;;;24.10;;
74908;SDS011;63468;52.058;4.824;2023-01-29T10:39:18;44.17;;;24.42;;
74908;SDS011;63468;52.058;4.824;2023-01-29T10:41:52;44.47;;;23.65;;
74908;SDS011;63468;52.058;4.824;2023-01-29T10:44:21;54.30;;;25.00;;
74908;SDS011;63468;52.058;4.824;2023-01-29T10:46:55;49.03;;;22.27;;
74908;SDS011;63468;52.058;4.824;2023-01-29T11:00:51;47.00;;;23.90;;
74908;SDS011;63468;52.058;4.824;2023-01-29T11:03:27;45.63;;;24.25;;
74908;SDS011;63468;52.058;4.824;2023-01-29T11:06:14;47.65;;;24.40;;
74908;SDS011;63468;52.058;4.824;2023-01-29T11:11:33;49.35;;;25.65;;
74908;SDS011;63468;52.058;4.824;2023-01-29T11:14:04;45.67;;;25.08;;
74908;SDS011;63468;52.058;4.824;2023-01-29T11:16:40;51.60;;;23.58;;
74908;SDS011;63468;52.058;4.824;2023-01-29T11:19:07;46.65;;;24.23;;
74908;SDS011;63468;52.058;4.824;2023-01-29T11:21:33;48.35;;;25.48;;
74908;SDS011;63468;52.058;4.824;2023-01-29T11:24:15;46.58;;;23.40;;
74908;SDS011;63468;52.058;4.824;2023-01-29T11:26:42;47.55;;;24.45;;
74908;SDS011;63468;52.058;4.824;2023-01-29T11:29:26;48.90;;;24.75;;
74908;SDS011;63468;52.058;4.824;2023-01-29T11:34:59;48.25;;;25.83;;
74908;SDS011;63468;52.058;4.824;2023-01-29T11:37:44;56.20;;;24.27;;
74908;SDS011;63468;52.058;4.824;2023-01-29T11:42:47;49.33;;;25.65;;
74908;SDS011;63468;52.058;4.824;2023-01-29T11:47:47;47.03;;;24.47;;
74908;SDS011;63468;52.058;4.824;2023-01-29T11:50:20;46.08;;;23.10;;
74908;SDS011;63468;52.058;4.824;2023-01-29T11:52:48;47.38;;;22.83;;
74908;SDS011;63468;52.058;4.824;2023-01-29T11:55:18;46.58;;;23.25;;
74908;SDS011;63468;52.058;4.824;2023-01-29T11:57:47;47.03;;;24.67;;
74908;SDS011;63468;52.058;4.824;2023-01-29T12:00:21;47.72;;;25.35;;
74908;SDS011;63468;52.058;4.824;2023-01-29T12:02:52;45.03;;;24.50;;
74908;SDS011;63468;52.058;4.824;2023-01-29T12:05:20;44.00;;;25.48;;
74908;SDS011;63468;52.058;4.824;2023-01-29T12:07:47;46.00;;;24.65;;
74908;SDS011;63468;52.058;4.824;2023-01-29T12:10:30;49.90;;;24.60;;
74908;SDS011;63468;52.058;4.824;2023-01-29T12:13:17;49.25;;;25.50;;
74908;SDS011;63468;52.058;4.824;2023-01-29T12:15:49;45.88;;;24.13;;
74908;SDS011;63468;52.058;4.824;2023-01-29T12:18:35;49.60;;;23.98;;
74908;SDS011;63468;52.058;4.824;2023-01-29T12:21:13;49.85;;;25.92;;
74908;SDS011;63468;52.058;4.824;2023-01-29T12:26:56;45.95;;;23.45;;
74908;SDS011;63468;52.058;4.824;2023-01-29T12:29:33;47.50;;;24.63;;
74908;SDS011;63468;52.058;4.824;2023-01-29T12:32:13;49.33;;;24.40;;
74908;SDS011;63468;52.058;4.824;2023-01-29T12:35:00;47.20;;;24.73;;
74908;SDS011;63468;52.058;4.824;2023-01-29T12:37:36;46.92;;;23.13;;
74908;SDS011;63468;52.058;4.824;2023-01-29T12:42:39;45.13;;;23.60;;
74908;SDS011;63468;52.058;4.824;2023-01-29T12:45:06;46.95;;;25.63;;
74908;SDS011;63468;52.058;4.824;2023-01-29T12:47:36;46.47;;;23.40;;
74908;SDS011;63468;52.058;4.824;2023-01-29T12:50:48;48.08;;;25.30;;
74908;SDS011;63468;52.058;4.824;2023-01-29T12:55:36;42.95;;;23.95;;
74908;SDS011;63468;52.058;4.824;2023-01-29T12:58:14;49.60;;;25.80;;
74908;SDS011;63468;52.058;4.824;2023-01-29T13:00:44;46.38;;;23.95;;
74908;SDS011;63468;52.058;4.824;2023-01-29T13:03:32;44.03;;;23.05;;
74908;SDS011;63468;52.058;4.824;2023-01-29T13:06:04;48.10;;;24.85;;
74908;SDS011;63468;52.058;4.824;2023-01-29T13:08:35;44.25;;;22.95;;
74908;SDS011;63468;52.058;4.824;2023-01-29T13:11:38;42.80;;;24.48;;
74908;SDS011;63468;52.058;4.824;2023-01-29T13:14:04;43.25;;;23.90;;
74908;SDS011;63468;52.058;4.824;2023-01-29T13:16:36;45.35;;;24.17;;
74908;SDS011;63468;52.058;4.824;2023-01-29T13:19:03;44.95;;;23.73;;
74908;SDS011;63468;52.058;4.824;2023-01-29T13:21:34;39.53;;;21.27;;
74908;SDS011;63468;52.058;4.824;2023-01-29T13:24:03;39.63;;;20.52;;
74908;SDS011;63468;52.058;4.824;2023-01-29T13:26:34;42.22;;;21.65;;
74908;SDS011;63468;52.058;4.824;2023-01-29T13:29:00;43.78;;;22.08;;
74908;SDS011;63468;52.058;4.824;2023-01-29T13:31:30;39.72;;;20.80;;
74908;SDS011;63468;52.058;4.824;2023-01-29T13:34:06;40.97;;;21.52;;
74908;SDS011;63468;52.058;4.824;2023-01-29T13:36:55;45.10;;;22.83;;
74908;SDS011;63468;52.058;4.824;2023-01-29T13:39:23;38.40;;;21.42;;
74908;SDS011;63468;52.058;4.824;2023-01-29T13:41:51;41.40;;;21.15;;
74908;SDS011;63468;52.058;4.824;2023-01-29T13:44:22;44.72;;;21.42;;
74908;SDS011;63468;52.058;4.824;2023-01-29T13:51:53;38.53;;;20.17;;
74908;SDS011;63468;52.058;4.824;2023-01-29T13:54:19;37.13;;;20.73;;
74908;SDS011;63468;52.058;4.824;2023-01-29T14:00:09;42.53;;;21.38;;
74908;SDS011;63468;52.058;4.824;2023-01-29T14:02:23;39.20;;;20.40;;
74908;SDS011;63468;52.058;4.824;2023-01-29T14:04:50;36.28;;;20.63;;
74908;SDS011;63468;52.058;4.824;2023-01-29T14:10:13;39.22;;;20.13;;
74908;SDS011;63468;52.058;4.824;2023-01-29T14:12:41;40.72;;;22.15;;
74908;SDS011;63468;52.058;4.824;2023-01-29T14:17:56;39.95;;;20.83;;
74908;SDS011;63468;52.058;4.824;2023-01-29T14:20:30;47.20;;;24.63;;
74908;SDS011;63468;52.058;4.824;2023-01-29T14:22:57;42.83;;;22.90;;
74908;SDS011;63468;52.058;4.824;2023-01-29T14:25:42;43.53;;;22.83;;
74908;SDS011;63468;52.058;4.824;2023-01-29T14:28:13;39.80;;;20.92;;
74908;SDS011;63468;52.058;4.824;2023-01-29T14:30:41;43.22;;;20.58;;
74908;SDS011;63468;52.058;4.824;2023-01-29T14:36:03;37.58;;;19.13;;
74908;SDS011;63468;52.058;4.824;2023-01-29T14:38:37;39.22;;;20.77;;
74908;SDS011;63468;52.058;4.824;2023-01-29T14:41:12;38.58;;;21.50;;
74908;SDS011;63468;52.058;4.824;2023-01-29T14:43:41;39.03;;;20.33;;
74908;SDS011;63468;52.058;4.824;2023-01-29T14:48:57;37.13;;;20.48;;
74908;SDS011;63468;52.058;4.824;2023-01-29T14:51:22;37.15;;;20.17;;
74908;SDS011;63468;52.058;4.824;2023-01-29T14:53:57;36.17;;;20.20;;
74908;SDS011;63468;52.058;4.824;2023-01-29T14:56:33;34.63;;;19.23;;
74908;SDS011;63468;52.058;4.824;2023-01-29T14:59:10;37.63;;;18.92;;
74908;SDS011;63468;52.058;4.824;2023-01-29T15:01:37;36.45;;;20.15;;
74908;SDS011;63468;52.058;4.824;2023-01-29T15:06:36;35.50;;;20.15;;
74908;SDS011;63468;52.058;4.824;2023-01-29T15:19:30;33.42;;;19.08;;
74908;SDS011;63468;52.058;4.824;2023-01-29T15:22:05;36.65;;;18.33;;
74908;SDS011;63468;52.058;4.824;2023-01-29T15:24:35;38.10;;;19.67;;
74908;SDS011;63468;52.058;4.824;2023-01-29T15:27:02;37.70;;;19.58;;
74908;SDS011;63468;52.058;4.824;2023-01-29T15:29:27;34.72;;;18.63;;
74908;SDS011;63468;52.058;4.824;2023-01-29T15:31:54;36.70;;;19.50;;
74908;SDS011;63468;52.058;4.824;2023-01-29T15:34:20;41.30;;;19.92;;
74908;SDS011;63468;52.058;4.824;2023-01-29T15:36:46;35.40;;;18.02;;
74908;SDS011;63468;52.058;4.824;2023-01-29T15:39:16;40.35;;;19.38;;
74908;SDS011;63468;52.058;4.824;2023-01-29T15:41:43;38.05;;;20.60;;
74908;SDS011;63468;52.058;4.824;2023-01-29T15:44:15;44.15;;;20.38;;
74908;SDS011;63468;52.058;4.824;2023-01-29T15:46:52;39.00;;;19.80;;
74908;SDS011;63468;52.058;4.824;2023-01-29T15:49:34;40.60;;;21.20;;
74908;SDS011;63468;52.058;4.824;2023-01-29T15:52:08;44.78;;;20.60;;
74908;SDS011;63468;52.058;4.824;2023-01-29T15:54:49;43.55;;;22.42;;
74908;SDS011;63468;52.058;4.824;2023-01-29T15:57:20;41.15;;;20.77;;
74908;SDS011;63468;52.058;4.824;2023-01-29T15:59:47;43.92;;;19.30;;
74908;SDS011;63468;52.058;4.824;2023-01-29T16:04:59;36.42;;;20.15;;
74908;SDS011;63468;52.058;4.824;2023-01-29T16:07:24;43.78;;;21.90;;
74908;SDS011;63468;52.058;4.824;2023-01-29T16:09:50;40.15;;;21.73;;
74908;SDS011;63468;52.058;4.824;2023-01-29T16:12:16;42.83;;;21.23;;
74908;SDS011;63468;52.058;4.824;2023-01-29T16:14:41;40.55;;;22.10;;
74908;SDS011;63468;52.058;4.824;2023-01-29T16:17:26;40.15;;;20.85;;
74908;SDS011;63468;52.058;4.824;2023-01-29T16:19:59;40.55;;;21.83;;
74908;SDS011;63468;52.058;4.824;2023-01-29T16:22:28;39.50;;;20.73;;
74908;SDS011;63468;52.058;4.824;2023-01-29T16:24:56;42.47;;;21.73;;
74908;SDS011;63468;52.058;4.824;2023-01-29T16:27:25;43.38;;;25.17;;
74908;SDS011;63468;52.058;4.824;2023-01-29T16:29:50;47.58;;;23.60;;
74908;SDS011;63468;52.058;4.824;2023-01-29T16:32:16;44.85;;;22.38;;
74908;SDS011;63468;52.058;4.824;2023-01-29T16:34:42;40.33;;;21.85;;
74908;SDS011;63468;52.058;4.824;2023-01-29T16:37:42;41.08;;;23.27;;
74908;SDS011;63468;52.058;4.824;2023-01-29T16:40:09;44.90;;;22.13;;
74908;SDS011;63468;52.058;4.824;2023-01-29T16:42:39;41.47;;;23.95;;
74908;SDS011;63468;52.058;4.824;2023-01-29T16:45:23;41.60;;;22.52;;
74908;SDS011;63468;52.058;4.824;2023-01-29T16:47:59;44.67;;;22.83;;
74908;SDS011;63468;52.058;4.824;2023-01-29T16:50:33;42.15;;;21.85;;